Terminal Aerodrome Forecast
Issued by NWS

Home | Current Version | Previous Version | Text Only | Print | Product List | Glossary On
Versions: 1 2 3 4 5 6 7 8 9 10 11 12 13 14 15 16 17 18 19 20 21 22 23 24 25 26 27
868
FTUS43 KLSX 260530
TAFUIN
TAF
KUIN 260530Z 2606/2706 18005KT P6SM SCT100
     FM261500 21014G23KT P6SM BKN120
     FM262300 20009KT P6SM BKN060
     FM270100 19005KT P6SM BKN250=

USA.gov is the U.S. government's official web portal to all federal, state and local government web resources and services.